Time;durP1;ratioP1;P1;durP2;ratioP2;P2;SDS_P1;SDS_P2;PMS_P1;PMS_P2;Temp;Humidity;BMP_temperature;BMP_pressure;BME280_temperature;BME280_humidity;BME280_pressure;Samples;Min_cycle;Max_cycle;Signal;HPM_P1;HPM_P2
2021/09/10 00:01:10;;;;;;;31.35;19.15;;;18.30;99.90;;;;;;5028084;28;20045;-79
2021/09/10 00:03:37;;;;;;;27.80;18.83;;;18.40;99.90;;;;;;5042071;28;20048;-80
2021/09/10 00:06:05;;;;;;;27.75;19.50;;;18.30;99.90;;;;;;5025313;28;20342;-80
2021/09/10 00:08:32;;;;;;;37.78;22.35;;;18.40;99.90;;;;;;5005730;28;20049;-81
2021/09/10 00:10:59;;;;;;;45.28;24.77;;;18.40;99.90;;;;;;5022457;28;20073;-80
2021/09/10 00:13:26;;;;;;;38.80;21.27;;;18.30;99.90;;;;;;5005073;28;20073;-82
2021/09/10 00:15:54;;;;;;;33.60;19.95;;;18.30;99.90;;;;;;5023110;28;20053;-81
2021/09/10 00:18:22;;;;;;;39.00;22.08;;;18.20;99.90;;;;;;5009467;28;20049;-78
2021/09/10 00:20:50;;;;;;;38.78;22.15;;;18.20;99.90;;;;;;5025186;28;20065;-80
2021/09/10 00:23:16;;;;;;;32.40;20.70;;;18.10;99.90;;;;;;5015914;28;20062;-79
2021/09/10 00:25:43;;;;;;;41.90;22.40;;;17.90;99.90;;;;;;5005517;28;20069;-80
2021/09/10 00:28:10;;;;;;;37.85;21.65;;;17.90;99.90;;;;;;5004166;28;20142;-80
2021/09/10 00:30:37;;;;;;;40.50;23.27;;;17.90;99.90;;;;;;5046126;28;20649;-81
2021/09/10 00:33:04;;;;;;;37.33;23.17;;;17.90;99.90;;;;;;5023599;28;20038;-81
2021/09/10 00:35:30;;;;;;;38.50;22.52;;;17.80;99.90;;;;;;5021372;28;20169;-79
2021/09/10 00:37:57;;;;;;;37.58;23.30;;;17.90;99.90;;;;;;5022722;28;20511;-80
2021/09/10 00:40:24;;;;;;;39.85;23.17;;;18.10;99.90;;;;;;5025019;28;20041;-80
2021/09/10 00:42:51;;;;;;;45.42;24.58;;;18.10;99.90;;;;;;5021750;28;20057;-80
2021/09/10 00:45:17;;;;;;;39.53;22.83;;;18.10;99.90;;;;;;5021127;28;20041;-81
2021/09/10 00:47:44;;;;;;;31.45;20.52;;;18.10;99.90;;;;;;5005872;28;20049;-81
2021/09/10 00:50:12;;;;;;;36.13;21.88;;;18.10;99.90;;;;;;5021713;28;20416;-79
2021/09/10 00:52:38;;;;;;;43.88;23.73;;;18.10;99.90;;;;;;5005801;28;20129;-80
2021/09/10 00:55:06;;;;;;;34.58;23.48;;;18.10;99.90;;;;;;5024443;28;20045;-80
2021/09/10 00:57:33;;;;;;;38.92;22.75;;;18.20;99.90;;;;;;5007379;28;20053;-82
2021/09/10 00:59:59;;;;;;;50.03;23.35;;;18.10;99.90;;;;;;5032986;28;20049;-80
2021/09/10 01:02:26;;;;;;;40.45;22.77;;;18.10;99.90;;;;;;5029455;28;20119;-79
2021/09/10 01:04:55;;;;;;;36.38;21.52;;;18.10;99.90;;;;;;5025048;28;20045;-79
2021/09/10 01:07:23;;;;;;;43.78;23.60;;;18.20;99.90;;;;;;5002199;28;20474;-79
2021/09/10 01:09:51;;;;;;;40.00;22.95;;;18.10;99.90;;;;;;5021188;28;20053;-79
2021/09/10 01:12:19;;;;;;;49.40;23.67;;;18.00;99.90;;;;;;5023532;28;20055;-79
2021/09/10 01:14:46;;;;;;;52.35;26.48;;;18.10;99.90;;;;;;5018293;28;20056;-79
2021/09/10 01:17:14;;;;;;;45.95;25.45;;;18.10;99.90;;;;;;5016918;28;20096;-79
2021/09/10 01:19:40;;;;;;;48.10;25.30;;;18.10;99.90;;;;;;5022955;28;20046;-80
2021/09/10 01:22:07;;;;;;;46.55;25.48;;;18.00;99.90;;;;;;5004707;28;20053;-80
2021/09/10 01:24:40;;;;;;;41.63;24.95;;;18.10;99.90;;;;;;5009058;28;20065;-81
2021/09/10 01:27:08;;;;;;;40.80;23.20;;;18.10;99.90;;;;;;5016696;28;20056;-80
2021/09/10 01:29:35;;;;;;;38.70;22.55;;;18.10;99.90;;;;;;5038730;28;20044;-80
2021/09/10 01:32:03;;;;;;;51.83;26.38;;;18.20;99.90;;;;;;5041261;28;20044;-81
2021/09/10 01:34:31;;;;;;;40.75;25.33;;;18.20;99.90;;;;;;5031013;28;20064;-82
2021/09/10 01:36:58;;;;;;;41.72;24.95;;;18.20;99.90;;;;;;5014959;28;20049;-83
2021/09/10 01:39:24;;;;;;;39.28;24.23;;;18.00;99.90;;;;;;5013790;28;20056;-82
2021/09/10 01:41:51;;;;;;;47.58;27.00;;;18.10;99.90;;;;;;5005826;28;20132;-82
2021/09/10 01:44:18;;;;;;;46.90;25.80;;;18.30;99.90;;;;;;5025409;28;20056;-82
2021/09/10 01:46:45;;;;;;;41.55;24.85;;;18.30;99.90;;;;;;5020532;28;20046;-82
2021/09/10 01:49:12;;;;;;;43.10;24.92;;;18.30;99.90;;;;;;5007217;28;20462;-79
2021/09/10 01:51:39;;;;;;;43.05;25.02;;;18.30;99.90;;;;;;5040255;28;20068;-79
2021/09/10 01:54:05;;;;;;;48.45;25.35;;;18.30;99.90;;;;;;5024767;28;20037;-79
2021/09/10 01:56:32;;;;;;;40.63;25.10;;;18.20;99.90;;;;;;5040803;28;20430;-80
2021/09/10 01:58:59;;;;;;;38.75;23.60;;;18.30;99.90;;;;;;5009452;28;20059;-80
2021/09/10 02:01:31;;;;;;;48.20;26.48;;;18.20;99.90;;;;;;5030349;28;20048;-80
2021/09/10 02:03:58;;;;;;;42.45;24.45;;;18.20;99.90;;;;;;5044480;28;20332;-80
2021/09/10 02:06:25;;;;;;;44.35;24.55;;;18.10;99.90;;;;;;5009252;28;20052;-80
2021/09/10 02:08:52;;;;;;;34.88;24.05;;;18.20;99.90;;;;;;5011693;28;20046;-81
2021/09/10 02:11:20;;;;;;;52.13;26.27;;;18.20;99.90;;;;;;5010171;28;20046;-82
2021/09/10 02:13:47;;;;;;;39.05;24.17;;;18.30;99.90;;;;;;5024506;28;20044;-82
2021/09/10 02:16:14;;;;;;;53.40;26.05;;;18.40;99.90;;;;;;5008834;28;20367;-82
2021/09/10 02:18:41;;;;;;;40.38;23.83;;;18.30;99.90;;;;;;5024546;28;20065;-81
2021/09/10 02:21:08;;;;;;;41.85;25.90;;;18.30;99.90;;;;;;5008616;28;20099;-80
2021/09/10 02:23:35;;;;;;;44.85;26.58;;;18.30;99.90;;;;;;5026806;28;20054;-80
2021/09/10 02:26:03;;;;;;;46.85;26.30;;;18.20;99.90;;;;;;5009757;28;20530;-81
2021/09/10 02:28:30;;;;;;;39.25;25.20;;;18.20;99.90;;;;;;5007516;28;20597;-81
2021/09/10 02:30:57;;;;;;;61.28;29.48;;;18.10;99.90;;;;;;5030004;28;20132;-82
2021/09/10 02:33:24;;;;;;;49.13;27.13;;;18.20;99.90;;;;;;5025113;28;20233;-82
2021/09/10 02:35:50;;;;;;;53.75;29.42;;;18.10;99.90;;;;;;5008743;28;20048;-81
2021/09/10 02:38:17;;;;;;;54.40;28.70;;;18.10;99.90;;;;;;5015425;28;20513;-81
2021/09/10 02:40:44;;;;;;;53.72;29.95;;;18.00;99.90;;;;;;5003561;28;20482;-81
2021/09/10 02:43:11;;;;;;;51.25;29.05;;;17.90;99.90;;;;;;5004477;28;20053;-80
2021/09/10 02:45:38;;;;;;;47.28;28.20;;;17.90;99.90;;;;;;5002822;28;20121;-80
2021/09/10 02:48:05;;;;;;;45.88;27.63;;;18.00;99.90;;;;;;5004047;28;20133;-81
2021/09/10 02:50:32;;;;;;;41.78;24.30;;;17.90;99.90;;;;;;5006549;28;20050;-80
2021/09/10 02:52:59;;;;;;;58.17;28.27;;;17.90;99.90;;;;;;5025504;28;20523;-81
2021/09/10 02:55:29;;;;;;;50.00;27.40;;;18.00;99.90;;;;;;5013655;28;20065;-79
2021/09/10 02:57:56;;;;;;;54.47;27.27;;;17.90;99.90;;;;;;5027057;28;20041;-80
2021/09/10 03:00:24;;;;;;;52.22;26.15;;;17.90;99.90;;;;;;5016135;28;20056;-79
2021/09/10 03:02:51;;;;;;;45.92;26.48;;;17.80;99.90;;;;;;5030570;28;20045;-79
2021/09/10 03:05:19;;;;;;;48.22;25.80;;;17.90;99.90;;;;;;5026254;28;20191;-80
2021/09/10 03:07:46;;;;;;;54.42;27.13;;;17.90;99.90;;;;;;5017104;28;20144;-79
2021/09/10 03:10:13;;;;;;;57.60;28.77;;;17.90;99.90;;;;;;5008438;28;20069;-79
2021/09/10 03:12:40;;;;;;;50.22;28.13;;;18.00;99.90;;;;;;5005538;28;20046;-80
2021/09/10 03:15:10;;;;;;;44.42;26.80;;;18.00;99.90;;;;;;5006565;28;20526;-79
2021/09/10 03:17:37;;;;;;;56.42;29.65;;;18.00;99.90;;;;;;4995686;28;20057;-79
2021/09/10 03:20:05;;;;;;;51.30;29.88;;;18.00;99.90;;;;;;5026296;28;20056;-79
2021/09/10 03:22:32;;;;;;;55.40;29.02;;;17.90;99.90;;;;;;5010204;28;20037;-79
2021/09/10 03:24:59;;;;;;;64.43;31.90;;;17.90;99.90;;;;;;5010286;28;20060;-81
2021/09/10 03:27:27;;;;;;;61.47;33.00;;;17.80;99.90;;;;;;4993579;28;20050;-79
2021/09/10 03:29:54;;;;;;;64.25;34.20;;;17.90;99.90;;;;;;5017462;28;20098;-81
2021/09/10 03:32:22;;;;;;;52.17;31.17;;;17.90;99.90;;;;;;5014953;28;20180;-80
2021/09/10 03:34:48;;;;;;;53.95;30.83;;;17.90;99.90;;;;;;5027166;28;20590;-80
2021/09/10 03:37:15;;;;;;;56.28;30.73;;;17.80;99.90;;;;;;5022446;28;20084;-80
2021/09/10 03:39:42;;;;;;;61.22;32.33;;;17.80;99.90;;;;;;5009662;28;20443;-80
2021/09/10 03:42:09;;;;;;;41.28;26.80;;;17.90;99.90;;;;;;5006334;28;20058;-80
2021/09/10 03:44:36;;;;;;;38.47;25.23;;;17.80;99.90;;;;;;5025612;28;20067;-81
2021/09/10 03:47:05;;;;;;;50.97;30.98;;;17.90;99.90;;;;;;5023201;28;20139;-80
2021/09/10 03:49:33;;;;;;;46.28;27.10;;;17.90;99.90;;;;;;5040626;28;20045;-80
2021/09/10 03:52:01;;;;;;;50.47;27.88;;;17.90;99.90;;;;;;5057107;28;20053;-80
2021/09/10 03:54:27;;;;;;;36.95;24.83;;;18.00;99.90;;;;;;5032044;28;20076;-82
2021/09/10 03:56:54;;;;;;;50.08;29.50;;;18.10;99.90;;;;;;5026152;28;20503;-82
2021/09/10 03:59:21;;;;;;;43.47;26.63;;;18.10;99.90;;;;;;5028075;28;20057;-81
2021/09/10 04:01:49;;;;;;;47.40;27.38;;;18.10;99.90;;;;;;5007634;28;20042;-81
2021/09/10 04:04:17;;;;;;;38.83;26.58;;;18.10;99.90;;;;;;5011451;28;20119;-80
2021/09/10 04:06:44;;;;;;;47.22;29.05;;;18.10;99.90;;;;;;5036729;28;20049;-81
2021/09/10 04:09:11;;;;;;;54.15;31.25;;;17.90;99.90;;;;;;5009774;28;20061;-82
2021/09/10 04:11:40;;;;;;;46.72;27.25;;;18.00;99.90;;;;;;5005655;28;20053;-81
2021/09/10 04:14:07;;;;;;;53.33;28.45;;;18.00;99.90;;;;;;5013696;28;20041;-82
2021/09/10 04:16:36;;;;;;;49.40;28.38;;;18.00;99.90;;;;;;5012323;28;20045;-81
2021/09/10 04:19:03;;;;;;;43.40;26.85;;;18.00;99.90;;;;;;5050523;28;20462;-79
2021/09/10 04:21:30;;;;;;;42.33;26.70;;;18.00;99.90;;;;;;5024896;28;20065;-80
2021/09/10 04:23:57;;;;;;;39.83;25.73;;;18.00;99.90;;;;;;5012323;28;20577;-81
2021/09/10 04:26:24;;;;;;;29.80;21.30;;;18.10;99.90;;;;;;5028361;28;20045;-80
2021/09/10 04:28:51;;;;;;;36.13;23.40;;;18.00;99.90;;;;;;5021730;28;20060;-81
2021/09/10 04:31:18;;;;;;;37.22;24.90;;;18.10;99.90;;;;;;5022058;28;20046;-78
2021/09/10 04:33:46;;;;;;;31.52;23.83;;;18.00;99.90;;;;;;5025560;28;20060;-78
2021/09/10 04:36:14;;;;;;;42.63;26.38;;;17.90;99.90;;;;;;5020473;28;20151;-80
2021/09/10 04:38:41;;;;;;;35.70;24.38;;;17.90;99.90;;;;;;5008097;28;20441;-80
2021/09/10 04:41:08;;;;;;;38.53;25.10;;;17.90;99.90;;;;;;5005290;28;20050;-78
2021/09/10 04:43:35;;;;;;;39.10;25.55;;;18.00;99.90;;;;;;5025560;28;20071;-79
2021/09/10 04:46:02;;;;;;;34.90;24.35;;;18.00;99.90;;;;;;5032148;28;20469;-81
2021/09/10 04:48:29;;;;;;;37.15;24.52;;;18.00;99.90;;;;;;5027328;28;20860;-80
2021/09/10 04:50:56;;;;;;;40.78;25.35;;;17.90;99.90;;;;;;5006762;28;20065;-78
2021/09/10 04:53:22;;;;;;;38.17;24.27;;;17.80;99.90;;;;;;5032076;28;20124;-80
2021/09/10 04:55:49;;;;;;;39.85;25.15;;;17.80;99.90;;;;;;5033207;28;20045;-79
2021/09/10 04:58:17;;;;;;;29.15;20.17;;;17.80;99.90;;;;;;5013564;28;20141;-79
2021/09/10 05:00:44;;;;;;;37.35;22.48;;;17.80;99.90;;;;;;5026873;28;20503;-80
2021/09/10 05:03:11;;;;;;;33.55;23.27;;;17.80;99.90;;;;;;5010701;28;20728;-79
2021/09/10 05:05:38;;;;;;;30.20;21.25;;;17.80;99.90;;;;;;5022286;28;20683;-78
2021/09/10 05:08:05;;;;;;;31.55;22.38;;;17.80;99.90;;;;;;5007295;28;20862;-78
2021/09/10 05:10:32;;;;;;;33.35;23.23;;;17.80;99.90;;;;;;5026806;28;20046;-81
2021/09/10 05:12:59;;;;;;;29.77;22.30;;;17.80;99.90;;;;;;5046720;28;20543;-79
2021/09/10 05:15:26;;;;;;;32.20;22.10;;;17.80;99.90;;;;;;5017119;28;20045;-79
2021/09/10 05:17:53;;;;;;;42.28;26.10;;;17.80;99.90;;;;;;5027154;28;20046;-80
2021/09/10 05:20:20;;;;;;;44.92;26.08;;;17.90;99.90;;;;;;4999245;28;20128;-79
2021/09/10 05:22:46;;;;;;;43.72;28.08;;;17.70;99.90;;;;;;5016905;28;20058;-78
2021/09/10 05:25:13;;;;;;;40.13;24.75;;;17.80;99.90;;;;;;5021665;28;20510;-78
2021/09/10 05:27:40;;;;;;;36.65;24.10;;;17.90;99.90;;;;;;5020413;28;20060;-80
2021/09/10 05:30:07;;;;;;;30.73;20.73;;;17.80;99.90;;;;;;5005885;28;20045;-81
2021/09/10 05:32:34;;;;;;;33.72;25.60;;;17.90;99.90;;;;;;5022922;28;20491;-78
2021/09/10 05:35:01;;;;;;;28.00;19.27;;;17.90;99.90;;;;;;5025905;28;20061;-80
2021/09/10 05:37:28;;;;;;;33.28;22.73;;;17.90;99.90;;;;;;5016560;28;20056;-80
2021/09/10 05:39:55;;;;;;;27.83;20.67;;;17.90;99.90;;;;;;5008229;28;20042;-79
2021/09/10 05:42:22;;;;;;;34.05;22.80;;;18.00;99.90;;;;;;5016309;28;20041;-80
2021/09/10 05:44:48;;;;;;;29.30;21.10;;;18.10;99.90;;;;;;5033508;28;20095;-80
2021/09/10 05:47:15;;;;;;;34.53;22.10;;;18.20;99.90;;;;;;5043380;28;20045;-78
2021/09/10 05:49:42;;;;;;;35.58;21.40;;;18.20;99.90;;;;;;5043656;28;20045;-79
2021/09/10 05:52:10;;;;;;;31.30;23.40;;;18.20;99.90;;;;;;5060003;28;20049;-79
2021/09/10 05:54:37;;;;;;;26.10;20.70;;;18.20;99.90;;;;;;5061067;28;20664;-80
2021/09/10 05:57:04;;;;;;;33.60;22.08;;;18.30;99.90;;;;;;5029504;28;20103;-78
2021/09/10 05:59:31;;;;;;;32.72;22.35;;;18.40;99.90;;;;;;5026631;28;20061;-80
2021/09/10 06:01:58;;;;;;;29.85;20.83;;;18.40;99.90;;;;;;5003770;28;20140;-80
2021/09/10 06:04:25;;;;;;;32.65;23.63;;;18.50;99.90;;;;;;5033619;28;20084;-81
2021/09/10 06:06:52;;;;;;;31.35;22.73;;;18.50;99.90;;;;;;5060308;28;20055;-79
2021/09/10 06:09:19;;;;;;;23.95;19.40;;;18.60;99.90;;;;;;5061913;28;20159;-79
2021/09/10 06:11:46;;;;;;;22.85;19.20;;;18.60;99.90;;;;;;5028100;28;20431;-79
2021/09/10 06:14:13;;;;;;;23.08;18.23;;;18.60;99.90;;;;;;5029647;28;20227;-79
2021/09/10 06:16:39;;;;;;;23.98;18.83;;;18.70;99.90;;;;;;5039369;28;20167;-82
2021/09/10 06:19:06;;;;;;;21.08;18.05;;;18.70;99.90;;;;;;5020047;28;20069;-81
2021/09/10 06:21:33;;;;;;;21.35;18.10;;;18.90;99.90;;;;;;5022914;28;20053;-80
2021/09/10 06:24:00;;;;;;;21.17;17.90;;;19.00;99.90;;;;;;4994235;28;20074;-80
2021/09/10 06:26:27;;;;;;;21.33;17.42;;;19.00;99.90;;;;;;5003141;28;20057;-80
2021/09/10 06:28:54;;;;;;;21.55;18.70;;;19.10;99.90;;;;;;5017873;28;20068;-81
2021/09/10 06:31:20;;;;;;;21.02;16.95;;;19.20;99.90;;;;;;5003881;28;20072;-80
2021/09/10 06:33:47;;;;;;;20.17;17.20;;;19.20;99.90;;;;;;5003697;28;20050;-80
2021/09/10 06:36:14;;;;;;;22.73;17.17;;;19.40;99.90;;;;;;5022190;28;20041;-80
2021/09/10 06:38:42;;;;;;;23.17;19.15;;;19.50;99.90;;;;;;5014519;28;20414;-79
2021/09/10 06:41:08;;;;;;;21.88;16.80;;;19.50;99.90;;;;;;5017668;28;20483;-80
2021/09/10 06:43:35;;;;;;;21.23;17.00;;;19.50;99.90;;;;;;5006074;28;20728;-80
2021/09/10 06:46:02;;;;;;;18.88;16.55;;;19.60;99.90;;;;;;5015096;28;20052;-78
2021/09/10 06:48:30;;;;;;;20.27;17.02;;;19.70;99.90;;;;;;5006034;28;20053;-78
2021/09/10 06:50:58;;;;;;;22.00;17.10;;;19.80;99.90;;;;;;5006865;28;20721;-78
2021/09/10 06:53:25;;;;;;;20.00;16.95;;;19.80;99.90;;;;;;4991643;28;20677;-79
2021/09/10 06:55:52;;;;;;;20.70;17.38;;;19.70;99.90;;;;;;5023266;28;20458;-79
2021/09/10 06:58:19;;;;;;;20.80;17.38;;;19.70;99.90;;;;;;5006579;28;20679;-78
2021/09/10 07:00:45;;;;;;;22.60;18.15;;;19.70;99.90;;;;;;5023315;28;20054;-79
2021/09/10 07:03:12;;;;;;;25.08;16.98;;;19.80;99.90;;;;;;5040356;28;20088;-79
2021/09/10 07:05:42;;;;;;;23.98;18.17;;;19.90;99.90;;;;;;5023476;28;20495;-80
2021/09/10 07:08:09;;;;;;;24.48;16.00;;;20.00;99.90;;;;;;5039791;28;20061;-80
2021/09/10 07:10:36;;;;;;;19.27;17.08;;;20.00;99.90;;;;;;5012365;28;20067;-80
2021/09/10 07:13:03;;;;;;;20.27;16.67;;;20.10;99.90;;;;;;5034534;28;20415;-79
2021/09/10 07:15:30;;;;;;;24.55;18.83;;;20.10;99.90;;;;;;5023759;28;20064;-79
2021/09/10 07:17:57;;;;;;;21.27;17.90;;;20.10;99.90;;;;;;5040378;28;20301;-79
2021/09/10 07:20:24;;;;;;;23.85;17.52;;;20.30;99.90;;;;;;5023108;28;20049;-79
2021/09/10 07:22:50;;;;;;;20.38;16.73;;;20.40;99.90;;;;;;5017093;28;20112;-79
2021/09/10 07:25:17;;;;;;;25.77;17.92;;;20.40;99.90;;;;;;4987466;28;20132;-80
2021/09/10 07:27:44;;;;;;;19.95;17.80;;;20.50;99.90;;;;;;5020068;28;20049;-80
2021/09/10 07:30:11;;;;;;;19.38;16.95;;;20.60;99.90;;;;;;5023381;28;20056;-80
2021/09/10 07:32:38;;;;;;;22.83;18.15;;;20.60;99.90;;;;;;5019003;28;20072;-80
2021/09/10 07:35:05;;;;;;;22.23;17.27;;;20.40;99.90;;;;;;5024096;28;20060;-79
2021/09/10 07:37:33;;;;;;;25.45;18.80;;;20.30;99.90;;;;;;5010861;28;20059;-78
2021/09/10 07:40:00;;;;;;;22.05;17.67;;;20.30;99.90;;;;;;5024706;28;20053;-79
2021/09/10 07:42:27;;;;;;;18.48;16.48;;;20.40;99.90;;;;;;5021603;28;20128;-79
2021/09/10 07:44:54;;;;;;;21.50;15.98;;;20.50;99.90;;;;;;5021205;28;20041;-78
2021/09/10 07:47:21;;;;;;;21.85;16.02;;;20.50;99.90;;;;;;5009377;28;20501;-78
2021/09/10 07:49:48;;;;;;;20.80;16.60;;;20.60;99.90;;;;;;5026556;28;20041;-79
2021/09/10 07:52:15;;;;;;;22.65;17.50;;;20.60;99.90;;;;;;5010118;28;20069;-78
2021/09/10 07:54:42;;;;;;;23.52;16.95;;;20.70;99.90;;;;;;5026956;28;20042;-78
2021/09/10 07:57:21;;;;;;;19.70;16.65;;;20.80;99.90;;;;;;5010097;28;20136;-80
2021/09/10 07:59:48;;;;;;;23.58;18.48;;;20.90;99.90;;;;;;5009142;28;20071;-79
2021/09/10 08:02:14;;;;;;;23.92;17.85;;;20.80;99.90;;;;;;5002982;28;20053;-80
2021/09/10 08:04:42;;;;;;;23.10;18.55;;;20.80;99.90;;;;;;5024908;28;20062;-78
2021/09/10 08:07:09;;;;;;;21.27;18.27;;;20.60;99.90;;;;;;5006972;28;20046;-78
2021/09/10 08:09:56;;;;;;;24.73;19.20;;;20.50;99.90;;;;;;5017129;28;20041;-79
2021/09/10 08:12:22;;;;;;;28.25;19.02;;;20.50;99.90;;;;;;5020151;28;20040;-78
2021/09/10 08:14:49;;;;;;;23.90;19.13;;;20.50;99.90;;;;;;5006926;28;20042;-79
2021/09/10 08:17:16;;;;;;;23.48;18.75;;;20.60;99.90;;;;;;5015032;28;20042;-79
2021/09/10 08:19:43;;;;;;;22.38;17.42;;;20.60;99.90;;;;;;5031754;28;20672;-80
2021/09/10 08:22:09;;;;;;;23.90;19.00;;;20.50;99.90;;;;;;5021166;28;20144;-79
2021/09/10 08:24:52;;;;;;;24.00;18.30;;;20.60;99.90;;;;;;5017105;28;20121;-79
2021/09/10 08:27:18;;;;;;;22.50;17.67;;;20.60;99.90;;;;;;5035766;28;20080;-79
2021/09/10 08:29:50;;;;;;;24.92;18.38;;;20.70;99.90;;;;;;5044006;28;20045;-80
2021/09/10 08:32:17;;;;;;;20.95;17.30;;;20.70;99.90;;;;;;5036070;28;20046;-78
2021/09/10 08:34:44;;;;;;;21.00;18.55;;;20.70;99.90;;;;;;5016460;28;20046;-78
2021/09/10 08:37:11;;;;;;;21.92;17.88;;;20.80;99.90;;;;;;5025033;28;20033;-78
2021/09/10 08:39:38;;;;;;;22.98;17.70;;;20.90;99.90;;;;;;5025359;28;20083;-78
2021/09/10 08:42:07;;;;;;;21.85;18.45;;;20.90;99.90;;;;;;5019771;28;20042;-78
2021/09/10 08:44:37;;;;;;;19.98;17.65;;;21.00;99.90;;;;;;5026116;28;20057;-78
2021/09/10 08:47:04;;;;;;;23.02;17.17;;;21.20;99.90;;;;;;5041234;28;20166;-78
2021/09/10 08:49:33;;;;;;;19.00;15.48;;;21.20;99.90;;;;;;5022806;28;20042;-79
2021/09/10 08:52:08;;;;;;;20.10;15.85;;;21.30;99.90;;;;;;4990767;28;20044;-79
2021/09/10 08:54:44;;;;;;;19.80;16.48;;;21.40;99.90;;;;;;5008651;28;20173;-80
2021/09/10 08:57:13;;;;;;;18.90;16.33;;;21.30;99.90;;;;;;5042479;28;20477;-78
2021/09/10 09:00:02;;;;;;;18.67;14.68;;;21.30;99.90;;;;;;5027695;28;20064;-80
2021/09/10 09:02:33;;;;;;;21.92;15.52;;;21.20;99.90;;;;;;5025816;28;20049;-80
2021/09/10 09:05:09;;;;;;;17.98;15.20;;;21.10;99.90;;;;;;5027417;28;20670;-79
2021/09/10 09:07:46;;;;;;;21.15;16.65;;;21.20;99.90;;;;;;5026117;28;20060;-81
2021/09/10 09:10:15;;;;;;;20.90;16.05;;;21.30;99.90;;;;;;5038060;28;20331;-79
2021/09/10 09:12:42;;;;;;;22.67;16.55;;;21.50;99.90;;;;;;5025950;28;20049;-80
2021/09/10 09:15:15;;;;;;;24.02;18.60;;;21.60;99.90;;;;;;5029818;28;20049;-79
2021/09/10 09:17:47;;;;;;;30.75;19.27;;;21.70;99.90;;;;;;5041349;28;20612;-80
2021/09/10 09:20:22;;;;;;;23.67;17.15;;;21.70;99.90;;;;;;5026170;28;20054;-79
2021/09/10 09:23:04;;;;;;;24.63;18.83;;;21.70;99.90;;;;;;5018270;28;20046;-80
2021/09/10 09:25:43;;;;;;;24.88;19.55;;;21.80;99.90;;;;;;5021176;28;20060;-79
2021/09/10 09:28:24;;;;;;;22.13;17.55;;;22.00;99.90;;;;;;5019800;28;20061;-79
2021/09/10 09:30:59;;;;;;;21.88;17.40;;;22.10;99.90;;;;;;5020825;28;20038;-79
2021/09/10 09:33:37;;;;;;;24.42;18.48;;;22.20;99.90;;;;;;5006210;28;20042;-80
2021/09/10 09:36:15;;;;;;;20.10;16.63;;;22.40;99.90;;;;;;5024344;28;20038;-80
2021/09/10 09:38:48;;;;;;;19.23;17.23;;;22.50;99.90;;;;;;4991782;28;20046;-81
2021/09/10 09:41:22;;;;;;;18.90;15.95;;;22.70;99.90;;;;;;5012229;28;20072;-80
2021/09/10 09:44:10;;;;;;;22.55;16.73;;;22.70;99.90;;;;;;5006805;28;20050;-78
2021/09/10 09:46:46;;;;;;;17.95;15.93;;;22.70;99.90;;;;;;5004480;28;20699;-81
2021/09/10 09:50:13;;;;;;;23.67;17.70;;;23.00;99.90;;;;;;4991512;28;20038;-81
2021/09/10 09:52:40;;;;;;;20.52;18.33;;;23.00;99.90;;;;;;5001389;28;20054;-78
2021/09/10 09:55:09;;;;;;;22.65;18.20;;;23.00;99.90;;;;;;5005782;28;20092;-81
2021/09/10 09:57:36;;;;;;;19.38;17.13;;;23.10;99.90;;;;;;5038038;28;20067;-80
2021/09/10 10:00:05;;;;;;;21.63;18.40;;;23.10;99.90;;;;;;5002213;28;20046;-82
2021/09/10 10:02:34;;;;;;;18.10;16.05;;;23.10;99.90;;;;;;4987882;28;20046;-81
2021/09/10 10:05:01;;;;;;;18.85;16.85;;;23.00;99.90;;;;;;5004895;28;20416;-81
2021/09/10 10:07:38;;;;;;;23.80;19.05;;;22.90;99.90;;;;;;5003877;28;20057;-82
2021/09/10 10:10:07;;;;;;;26.95;21.80;;;22.80;99.90;;;;;;5011440;28;20046;-80
2021/09/10 10:12:35;;;;;;;25.63;20.60;;;22.90;99.90;;;;;;5015113;28;20077;-82
2021/09/10 10:15:29;;;;;;;30.88;21.30;;;22.80;99.90;;;;;;5023973;28;20045;-79
2021/09/10 10:17:57;;;;;;;25.88;19.80;;;22.80;99.90;;;;;;4992047;28;20045;-80
2021/09/10 10:20:46;;;;;;;23.38;20.25;;;22.60;99.90;;;;;;5021833;28;20053;-82
2021/09/10 10:23:54;;;;;;;28.95;20.17;;;22.50;99.90;;;;;;5013957;28;20136;-81
2021/09/10 10:26:31;;;;;;;24.65;20.88;;;22.50;99.90;;;;;;5023494;28;20133;-81
2021/09/10 10:29:07;;;;;;;23.25;18.23;;;22.60;99.90;;;;;;5005807;28;20040;-82
2021/09/10 10:32:09;;;;;;;21.05;18.15;;;22.40;99.90;;;;;;5022718;28;20442;-82
2021/09/10 10:35:15;;;;;;;22.55;17.73;;;22.40;99.90;;;;;;5023835;28;20225;-80
2021/09/10 10:38:02;;;;;;;26.67;18.83;;;22.40;99.90;;;;;;5023561;28;20041;-80
2021/09/10 10:40:32;;;;;;;25.05;18.65;;;22.50;99.90;;;;;;5035644;28;20790;-80
2021/09/10 10:43:11;;;;;;;25.83;19.77;;;22.40;99.90;;;;;;5035498;28;20107;-80
2021/09/10 10:45:40;;;;;;;29.85;22.42;;;22.40;99.90;;;;;;5008000;28;20057;-80
2021/09/10 10:48:40;;;;;;;31.65;22.83;;;22.40;99.90;;;;;;5027556;28;20117;-80
2021/09/10 10:51:21;;;;;;;33.58;23.00;;;22.40;99.90;;;;;;5005528;28;20044;-81
2021/09/10 10:53:54;;;;;;;31.50;21.65;;;22.30;99.90;;;;;;5043807;28;20064;-80
2021/09/10 10:56:24;;;;;;;32.95;23.58;;;22.30;99.90;;;;;;5042331;28;20052;-81
2021/09/10 10:59:12;;;;;;;31.58;22.92;;;22.40;99.90;;;;;;5042557;28;20053;-80
2021/09/10 11:02:21;;;;;;;26.77;21.70;;;22.50;99.90;;;;;;5025397;28;20052;-81
2021/09/10 11:04:58;;;;;;;28.45;21.88;;;22.70;99.90;;;;;;5024002;28;20072;-80
2021/09/10 11:07:27;;;;;;;30.55;19.98;;;22.90;99.90;;;;;;5024947;28;20053;-80
2021/09/10 11:10:04;;;;;;;25.92;20.00;;;23.10;99.90;;;;;;5008941;28;20079;-82
2021/09/10 11:12:31;;;;;;;26.15;18.88;;;23.30;99.90;;;;;;5015541;28;20072;-82
2021/09/10 11:14:59;;;;;;;22.17;19.25;;;23.40;99.90;;;;;;5032765;28;20092;-81
2021/09/10 11:17:27;;;;;;;17.85;16.05;;;23.50;99.90;;;;;;5028731;28;20053;-81
2021/09/10 11:19:56;;;;;;;15.77;14.18;;;23.60;99.90;;;;;;5029176;28;20096;-82
2021/09/10 11:22:45;;;;;;;15.27;13.50;;;23.70;99.90;;;;;;5012640;28;20642;-80
2021/09/10 11:25:12;;;;;;;15.05;13.52;;;24.00;99.90;;;;;;5012977;28;20041;-80
2021/09/10 11:27:40;;;;;;;17.05;15.20;;;24.00;99.90;;;;;;5029887;28;20228;-80
2021/09/10 11:30:18;;;;;;;19.33;15.25;;;24.10;99.90;;;;;;5044356;28;20073;-80
2021/09/10 11:32:45;;;;;;;13.30;12.00;;;24.30;99.90;;;;;;5018232;28;20042;-81
2021/09/10 11:35:23;;;;;;;12.75;11.65;;;24.50;99.90;;;;;;5007412;28;20050;-81
2021/09/10 11:37:53;;;;;;;13.88;12.55;;;24.80;99.90;;;;;;5007483;28;20084;-81
2021/09/10 11:40:42;;;;;;;13.32;12.10;;;24.70;99.90;;;;;;5003775;28;20045;-81
2021/09/10 11:43:31;;;;;;;12.57;11.57;;;24.70;99.90;;;;;;5010967;28;20081;-82
2021/09/10 11:46:10;;;;;;;13.52;12.20;;;24.70;99.90;;;;;;5027577;28;20069;-82
2021/09/10 11:48:45;;;;;;;12.90;11.68;;;24.80;99.90;;;;;;5034754;28;20058;-80
2021/09/10 11:51:15;;;;;;;13.35;11.95;;;25.00;99.90;;;;;;5032312;28;20049;-80
2021/09/10 11:53:46;;;;;;;13.07;11.88;;;25.00;99.90;;;;;;5030332;28;20133;-81
2021/09/10 11:56:19;;;;;;;12.52;11.48;;;25.00;99.90;;;;;;5023293;28;20447;-80
2021/09/10 11:58:49;;;;;;;13.43;12.30;;;25.20;99.90;;;;;;5007865;28;20157;-80
2021/09/10 12:01:21;;;;;;;13.18;12.07;;;25.40;99.90;;;;;;4991903;28;20077;-80
2021/09/10 12:03:56;;;;;;;14.25;13.13;;;25.40;99.90;;;;;;5025847;28;20146;-81
2021/09/10 12:06:29;;;;;;;14.35;13.07;;;25.50;99.90;;;;;;4992302;28;20619;-80
2021/09/10 12:09:10;;;;;;;13.75;12.55;;;25.50;99.90;;;;;;5007781;28;20408;-81
2021/09/10 12:12:14;;;;;;;14.02;12.88;;;25.50;99.90;;;;;;4990987;28;20037;-83
2021/09/10 12:14:52;;;;;;;13.80;12.60;;;25.50;99.90;;;;;;5008257;28;20461;-81
2021/09/10 12:17:24;;;;;;;13.18;11.90;;;25.20;99.90;;;;;;4993515;28;20570;-81
2021/09/10 12:19:52;;;;;;;14.40;13.27;;;25.20;99.90;;;;;;4997006;28;20053;-82
2021/09/10 12:22:33;;;;;;;13.43;12.25;;;25.20;99.90;;;;;;5024299;28;20046;-80
2021/09/10 12:25:36;;;;;;;13.27;12.27;;;25.30;99.90;;;;;;5008533;28;20227;-83
2021/09/10 12:28:06;;;;;;;12.40;11.40;;;25.50;99.90;;;;;;5023869;28;20140;-80
2021/09/10 12:30:44;;;;;;;13.32;12.18;;;25.80;99.90;;;;;;5021138;28;20053;-80
2021/09/10 12:33:19;;;;;;;13.10;12.20;;;25.90;99.90;;;;;;5012923;28;20056;-80
2021/09/10 12:35:49;;;;;;;13.38;12.48;;;26.00;99.90;;;;;;5040945;28;20144;-78
2021/09/10 12:38:22;;;;;;;13.52;12.23;;;26.00;99.90;;;;;;5025383;28;20049;-79
2021/09/10 12:40:53;;;;;;;12.52;11.63;;;25.90;99.90;;;;;;5024501;28;20124;-79
2021/09/10 12:43:23;;;;;;;13.40;12.32;;;25.60;99.90;;;;;;5028030;28;20156;-80